Pagina principală
METAR-TAF:

METAR-TAF

Aeroporturi :

Denton Municipal Airport

Denton, Texas, Statele Unite ale Americii

Latitudine: 33-12-22N, longitudine: 097-11-56W, elevație: 195 m

Observații meteo curente

Raportul a fost făcut în urmă cu 1 oră și 8 de minute, la 03:53 UTC
Vânt 6 kt de la Sud-est
Temperatură 27°C
Umiditate 70%
Presiune 1013 hPa
Vizibilitate: 16.1 km
Cer senin

METAR: KDTO 190353Z AUTO 13006KT 10SM CLR 27/21 A2990 RMK AO2 SLP114 T02670206

Ora: 00:01 (05:01 UTC)


TAF: lipsă

Observații și prognoze meteo pentru peste 4.000 de aeroporturi (rapoarte METAR și TAF).

Stațiile disponibile sunt reprezentate pe hartă prin puncte galbene și roșii.

Țineți indicatorul mouse-ului pe punctul dorit pentru a vedea denumirea stației.

Apoi, faceți clic pentru a vedea observațiile și prognozele meteorologice.

Pentru a schimba harta: Pentru mărire, faceți clic pe butoanele verzi cu cruce neagră; pentru micșorare, pe butonul verde cu o liniuță; pentru hărți învecinate, pe săgețile verzi.


METAR-TAF: